CheckWX is a tool to help pilots better visualize weather data.  It is not intended as a substitute for an official pre-flight weather briefing.

02:10:41 UTC

SASA TAF
Martin Miguel De Guemes International Airport
Salta, Argentina
TAF SASA 222300Z 2300/2324 05005KT 5000 DZ BKN010 OVC060 TX17/2318Z TN14/2310Z BECMG 2302/2305 32005KT 0800 DZ FG OVC005 BECMG 2313/2316 05005KT 9999 BKN020

Apr-23@
00:00 UTC

Apr-23 @ 00:00 UTC

Apr-23@
02:00 UTC

Apr-23 @ 02:00 UTC

TAF SASA 222300Z 2300/2324 05005KT 5000 DZ BKN010 OVC060 TX17/2318Z TN14/2310Z

Expired

Wind
  • 050° at 5 KTS
Conditions
Drizzle
Cloud Levels
  • Broken at 1,000' AGL
  • Overcast at 6,000' AGL

Apr-23@
02:00 UTC

Apr-23 @ 02:00 UTC

Apr-23@
13:00 UTC

Apr-23 @ 13:00 UTC

BECMG 2302/2305 32005KT 0800 DZ FG OVC005

Becoming

Becoming Conditions expected by Tue, Apr 23, 2019 @ 05:00 UTC

Wind
  • 320° at 5 KTS
Conditions
Drizzle, Fog
Cloud Levels
  • Overcast at 500' AGL

Apr-23@
13:00 UTC

Apr-23 @ 13:00 UTC

Apr-24@
00:00 UTC

Apr-24 @ 00:00 UTC

BECMG 2313/2316 05005KT 9999 BKN020

Becoming

Becoming Conditions expected by Tue, Apr 23, 2019 @ 16:00 UTC

Wind
  • 050° at 5 KTS
Conditions
Drizzle, Fog
Cloud Levels
  • Broken at 2,000' AGL